Time;durP1;ratioP1;P1;durP2;ratioP2;P2;SDS_P1;SDS_P2;PMS_P1;PMS_P2;Temp;Humidity;BMP_temperature;BMP_pressure;BME280_temperature;BME280_humidity;BME280_pressure;Samples;Min_cycle;Max_cycle;Signal;HPM_P1;HPM_P2
2021/07/14 00:00:58;;;;;;;28.45;21.35;;;20.50;99.90;;;;;;5040217;28;20077;-86
2021/07/14 00:03:46;;;;;;;30.58;22.40;;;20.50;99.90;;;;;;5040028;28;20053;-84
2021/07/14 00:06:53;;;;;;;32.47;23.52;;;20.40;99.90;;;;;;5042934;28;20049;-85
2021/07/14 00:09:45;;;;;;;29.17;21.75;;;20.40;99.90;;;;;;5041273;28;20053;-86
2021/07/14 00:12:32;;;;;;;25.50;20.35;;;21.00;99.90;;;;;;5042524;28;20045;-85
2021/07/14 00:24:09;;;;;;;25.08;19.65;;;20.60;99.90;;;;;;5053467;28;20043;-83
2021/07/14 00:26:56;;;;;;;27.25;21.95;;;20.70;99.90;;;;;;5054399;28;20049;-86
2021/07/14 00:29:52;;;;;;;24.77;19.90;;;20.70;99.90;;;;;;5054015;28;20565;-83
2021/07/14 00:32:41;;;;;;;34.25;25.58;;;20.80;99.90;;;;;;5051913;28;20088;-83
2021/07/14 00:35:28;;;;;;;36.00;27.17;;;20.70;99.90;;;;;;5040143;28;20091;-86
2021/07/14 00:38:15;;;;;;;36.10;27.15;;;20.60;99.90;;;;;;5039979;28;20116;-86
2021/07/14 00:41:04;;;;;;;41.03;28.77;;;20.50;99.90;;;;;;5040309;28;20049;-85
2021/07/14 00:43:51;;;;;;;37.78;27.35;;;20.40;99.90;;;;;;5054912;28;20417;-86
2021/07/14 00:46:40;;;;;;;35.58;27.42;;;20.40;99.90;;;;;;5039884;28;20049;-86
2021/07/14 00:49:29;;;;;;;34.72;25.95;;;20.50;99.90;;;;;;5040205;28;20059;-86
2021/07/14 00:52:17;;;;;;;32.25;24.38;;;20.50;99.90;;;;;;5037666;28;20102;-86
2021/07/14 00:55:04;;;;;;;30.77;24.10;;;20.50;99.90;;;;;;5040307;28;20152;-86
2021/07/14 00:57:52;;;;;;;38.05;27.70;;;20.60;99.90;;;;;;5039883;28;20056;-85
2021/07/14 01:00:39;;;;;;;31.73;24.42;;;20.70;99.90;;;;;;5039618;28;20056;-83
2021/07/14 01:03:30;;;;;;;37.33;28.42;;;20.50;99.90;;;;;;5039895;28;20570;-86
2021/07/14 03:01:54;;;;;;;42.38;28.48;;;20.60;99.90;;;;;;5053778;28;20017;-86
2021/07/14 03:04:46;;;;;;;40.78;26.90;;;20.50;99.90;;;;;;5055423;28;20051;-86
2021/07/14 03:07:35;;;;;;;44.25;28.42;;;20.50;99.90;;;;;;5037224;28;20041;-81
2021/07/14 03:10:22;;;;;;;47.58;28.95;;;20.90;99.90;;;;;;5050892;28;20052;-86
2021/07/14 03:13:10;;;;;;;37.10;26.25;;;20.50;99.90;;;;;;5059569;28;20048;-87
2021/07/14 03:15:58;;;;;;;38.45;25.13;;;22.10;99.90;;;;;;5061375;28;20059;-86
2021/07/14 03:18:50;;;;;;;35.85;25.10;;;20.60;99.90;;;;;;5047586;28;20137;-86
2021/07/14 03:21:37;;;;;;;33.03;23.95;;;20.60;99.90;;;;;;5041024;28;20045;-83
2021/07/14 03:24:25;;;;;;;34.97;25.10;;;20.70;99.90;;;;;;5041973;28;20067;-86
2021/07/14 03:27:13;;;;;;;41.13;27.38;;;20.70;99.90;;;;;;5041044;28;20041;-86
2021/07/14 03:30:01;;;;;;;36.47;24.77;;;20.70;99.90;;;;;;5041860;28;20057;-85
2021/07/14 03:32:49;;;;;;;40.05;26.85;;;20.60;99.90;;;;;;5041252;28;20049;-85
2021/07/14 03:35:39;;;;;;;40.22;27.50;;;20.70;99.90;;;;;;5051148;28;20493;-86
2021/07/14 03:38:27;;;;;;;42.38;29.30;;;20.70;99.90;;;;;;5059816;28;20119;-86
2021/07/14 03:41:15;;;;;;;41.55;28.75;;;20.50;99.90;;;;;;5060432;28;20054;-84
2021/07/14 03:44:03;;;;;;;41.65;29.25;;;20.30;99.90;;;;;;5060936;28;20071;-86
2021/07/14 03:46:51;;;;;;;41.65;27.35;;;20.40;99.90;;;;;;5060351;28;20052;-85
2021/07/14 03:49:39;;;;;;;36.17;25.17;;;20.50;99.90;;;;;;5059874;28;20052;-84
2021/07/14 03:52:29;;;;;;;37.08;26.90;;;20.50;99.90;;;;;;5059668;28;20047;-86
2021/07/14 03:55:16;;;;;;;46.55;29.17;;;20.50;99.90;;;;;;5060417;28;20054;-85
2021/07/14 03:58:03;;;;;;;46.85;29.15;;;21.10;99.90;;;;;;5060985;28;20044;-87
2021/07/14 04:00:51;;;;;;;42.95;28.80;;;20.30;99.90;;;;;;5058938;28;20041;-87
2021/07/14 04:03:39;;;;;;;40.20;28.23;;;20.30;99.90;;;;;;5073360;28;20123;-85
2021/07/14 04:06:33;;;;;;;50.30;30.67;;;20.40;99.90;;;;;;5059388;28;20129;-86
2021/07/14 04:09:23;;;;;;;46.30;30.15;;;20.50;99.90;;;;;;5053285;28;20176;-86
2021/07/14 04:12:12;;;;;;;47.78;30.10;;;20.30;99.90;;;;;;5040943;28;20041;-86
2021/07/14 04:15:00;;;;;;;49.10;31.55;;;20.40;99.90;;;;;;5040254;28;20053;-85
2021/07/14 04:17:47;;;;;;;53.15;31.33;;;20.30;99.90;;;;;;5039810;28;20565;-86
2021/07/14 04:20:34;;;;;;;54.75;33.30;;;20.30;99.90;;;;;;5040049;28;20049;-86
2021/07/14 04:23:21;;;;;;;55.35;33.65;;;20.00;99.90;;;;;;5040418;28;20056;-86
2021/07/14 04:26:10;;;;;;;49.95;31.08;;;19.90;99.90;;;;;;5039809;28;20498;-86
2021/07/14 04:28:57;;;;;;;60.67;35.53;;;19.90;99.90;;;;;;5040115;28;20132;-83
2021/07/14 04:31:44;;;;;;;54.88;33.60;;;20.00;99.90;;;;;;5040537;28;20541;-86
2021/07/14 04:34:31;;;;;;;58.15;32.55;;;19.90;99.90;;;;;;5040382;28;20468;-85
2021/07/14 04:37:18;;;;;;;65.45;35.63;;;19.90;99.90;;;;;;5040269;28;20521;-86
2021/07/14 04:40:07;;;;;;;55.42;34.65;;;20.00;99.90;;;;;;5039757;28;20049;-84
2021/07/14 04:42:55;;;;;;;63.28;35.85;;;20.10;99.90;;;;;;5053816;28;20051;-85
2021/07/14 04:45:43;;;;;;;60.67;36.30;;;20.10;99.90;;;;;;5040382;28;20045;-86
2021/07/14 04:48:30;;;;;;;60.90;37.22;;;20.00;99.90;;;;;;5040608;28;20037;-86
2021/07/14 04:51:17;;;;;;;67.78;37.67;;;19.80;99.90;;;;;;5040262;28;20056;-85
2021/07/14 04:54:04;;;;;;;59.45;34.05;;;19.90;99.90;;;;;;5040500;28;20045;-87
2021/07/14 04:56:51;;;;;;;66.13;36.50;;;19.70;99.90;;;;;;5039961;28;20049;-85
2021/07/14 04:59:41;;;;;;;63.38;36.75;;;19.60;99.90;;;;;;5039110;28;20124;-85
2021/07/14 05:02:28;;;;;;;59.60;33.05;;;19.60;99.90;;;;;;5039898;28;20045;-85
2021/07/14 05:05:16;;;;;;;60.67;35.88;;;19.60;99.90;;;;;;5039619;28;20632;-86
2021/07/14 05:08:04;;;;;;;62.70;33.63;;;19.70;99.90;;;;;;5038306;28;20154;-86
2021/07/14 05:10:51;;;;;;;58.15;31.90;;;19.70;99.90;;;;;;5019928;28;20049;-86
2021/07/14 05:13:38;;;;;;;62.83;36.03;;;19.80;99.90;;;;;;5019040;28;20525;-86
2021/07/14 05:16:27;;;;;;;60.80;34.75;;;19.90;99.90;;;;;;5019669;28;20049;-85
2021/07/14 05:19:14;;;;;;;60.78;34.45;;;19.90;99.90;;;;;;5019234;28;20049;-83
2021/07/14 05:22:01;;;;;;;69.18;37.70;;;19.90;99.90;;;;;;5032497;28;20097;-84
2021/07/14 05:24:48;;;;;;;67.70;36.53;;;19.80;99.90;;;;;;5019189;28;20049;-86
2021/07/14 05:27:35;;;;;;;69.72;37.92;;;19.70;99.90;;;;;;5019586;28;20043;-86
2021/07/14 05:30:23;;;;;;;71.95;37.80;;;19.70;99.90;;;;;;5019776;28;20057;-84
2021/07/14 05:33:11;;;;;;;64.82;36.58;;;19.80;99.90;;;;;;5019929;28;20152;-85
2021/07/14 05:35:58;;;;;;;62.87;35.93;;;19.90;99.90;;;;;;5018914;28;20052;-86
2021/07/14 05:38:45;;;;;;;68.63;36.72;;;19.90;99.90;;;;;;5019042;28;20064;-86
2021/07/14 05:41:33;;;;;;;71.40;38.08;;;20.00;99.90;;;;;;5018010;28;20045;-86
2021/07/14 05:44:20;;;;;;;68.50;38.63;;;19.90;99.90;;;;;;5032083;28;20049;-85
2021/07/14 05:47:07;;;;;;;64.22;35.58;;;19.90;99.90;;;;;;5032195;28;20049;-84
2021/07/14 05:49:55;;;;;;;63.00;35.00;;;19.90;99.90;;;;;;5020566;28;20057;-85
2021/07/14 05:52:43;;;;;;;69.60;37.92;;;19.90;99.90;;;;;;5019719;28;20075;-86
2021/07/14 05:55:30;;;;;;;64.68;37.25;;;19.90;99.90;;;;;;5032209;28;20049;-82
2021/07/14 05:58:18;;;;;;;62.17;35.22;;;20.00;99.90;;;;;;5032265;28;20039;-85
2021/07/14 06:01:05;;;;;;;60.92;36.38;;;19.90;99.90;;;;;;5019515;28;20081;-85
2021/07/14 06:03:52;;;;;;;65.90;36.05;;;19.90;99.90;;;;;;5019179;28;20045;-86
2021/07/14 06:06:42;;;;;;;66.38;36.22;;;19.90;99.90;;;;;;5019163;28;20054;-85
2021/07/14 06:09:29;;;;;;;64.72;35.13;;;19.90;99.90;;;;;;5035322;28;20049;-85
2021/07/14 06:12:16;;;;;;;60.60;33.33;;;19.80;99.90;;;;;;5058214;28;20044;-86
2021/07/14 06:15:05;;;;;;;69.22;36.30;;;19.80;99.90;;;;;;5057306;28;20194;-85
2021/07/14 06:17:52;;;;;;;62.80;33.60;;;19.80;99.90;;;;;;5057002;28;20050;-85
2021/07/14 06:20:40;;;;;;;69.03;36.03;;;19.80;99.90;;;;;;5056699;28;20127;-85
2021/07/14 06:23:29;;;;;;;71.57;38.20;;;19.70;99.90;;;;;;5057523;28;20056;-86
2021/07/14 06:26:16;;;;;;;68.72;37.13;;;19.70;99.90;;;;;;5057958;28;20426;-83
2021/07/14 06:29:04;;;;;;;71.43;38.55;;;19.70;99.90;;;;;;5057055;28;20037;-86
2021/07/14 06:31:51;;;;;;;72.38;37.65;;;19.70;99.90;;;;;;5058703;28;20045;-86
2021/07/14 06:34:38;;;;;;;78.75;38.72;;;19.90;99.90;;;;;;5058073;28;20425;-83
2021/07/14 06:37:26;;;;;;;73.13;37.28;;;19.90;99.90;;;;;;5056830;28;20131;-86
2021/07/14 06:40:15;;;;;;;70.13;36.58;;;19.90;99.90;;;;;;5058397;28;20052;-83
2021/07/14 06:43:05;;;;;;;68.78;35.95;;;19.90;99.90;;;;;;5056749;28;20044;-86
2021/07/14 06:45:52;;;;;;;74.78;37.08;;;20.00;99.90;;;;;;5056415;28;20052;-86
2021/07/14 06:48:40;;;;;;;79.30;37.30;;;19.90;99.90;;;;;;5056670;28;20564;-85
2021/07/14 06:51:28;;;;;;;75.13;38.20;;;20.10;99.90;;;;;;5058160;28;20047;-83
2021/07/14 06:54:15;;;;;;;74.25;37.28;;;20.10;99.90;;;;;;5058409;28;20120;-86
2021/07/14 06:57:04;;;;;;;81.65;39.00;;;20.20;99.90;;;;;;5057869;28;20061;-85
2021/07/14 06:59:52;;;;;;;84.15;38.97;;;20.00;99.90;;;;;;5056719;28;20466;-86
2021/07/14 07:02:39;;;;;;;75.30;38.38;;;20.00;99.90;;;;;;5056703;28;20103;-86
2021/07/14 07:05:26;;;;;;;78.82;38.35;;;20.00;99.90;;;;;;5057861;28;20066;-84
2021/07/14 07:08:17;;;;;;;79.65;37.65;;;19.90;99.90;;;;;;5057907;28;20086;-86
2021/07/14 07:11:05;;;;;;;78.00;38.80;;;20.00;99.90;;;;;;5017651;28;20050;-85
2021/07/14 07:13:53;;;;;;;81.57;39.20;;;20.00;99.90;;;;;;5017450;28;20088;-86
2021/07/14 07:16:40;;;;;;;88.90;40.38;;;20.00;99.90;;;;;;5015820;28;20053;-86
2021/07/14 07:19:27;;;;;;;80.43;37.38;;;19.90;99.90;;;;;;5017872;28;20414;-79
2021/07/14 07:22:15;;;;;;;83.70;39.25;;;19.90;99.90;;;;;;5017004;28;20044;-86
2021/07/14 07:25:03;;;;;;;82.63;38.58;;;20.00;99.90;;;;;;5017327;28;20158;-86
2021/07/14 07:27:51;;;;;;;78.60;37.40;;;20.00;99.90;;;;;;5018063;28;20055;-85
2021/07/14 07:30:40;;;;;;;86.90;38.95;;;20.00;99.90;;;;;;5017675;28;20049;-86
2021/07/14 07:33:27;;;;;;;87.80;43.10;;;20.00;99.90;;;;;;5018290;28;20124;-86
2021/07/14 07:36:15;;;;;;;80.60;38.35;;;19.90;99.90;;;;;;5017556;28;20430;-85
2021/07/14 07:39:05;;;;;;;95.75;43.92;;;21.10;99.90;;;;;;5018368;28;20050;-86
2021/07/14 07:41:52;;;;;;;97.07;40.92;;;19.80;99.90;;;;;;5018296;28;20506;-83
2021/07/14 07:44:39;;;;;;;92.35;42.53;;;19.70;99.90;;;;;;5017631;28;20045;-86
2021/07/14 07:47:28;;;;;;;92.80;41.30;;;19.80;99.90;;;;;;5018203;28;20054;-85
2021/07/14 07:50:16;;;;;;;92.53;40.50;;;19.90;99.90;;;;;;5017791;28;20427;-85
2021/07/14 07:53:03;;;;;;;92.10;42.22;;;19.90;99.90;;;;;;5017685;28;20053;-86
2021/07/14 07:55:51;;;;;;;100.03;43.30;;;20.00;99.90;;;;;;5018251;28;20053;-85
2021/07/14 07:58:38;;;;;;;83.43;40.22;;;20.10;99.90;;;;;;5018958;28;20499;-85
2021/07/14 08:01:25;;;;;;;92.40;41.78;;;20.10;99.90;;;;;;5020291;28;20570;-83
2021/07/14 08:04:14;;;;;;;83.72;40.20;;;20.30;99.90;;;;;;5020548;28;20118;-86
2021/07/14 08:07:01;;;;;;;86.22;41.13;;;20.30;99.90;;;;;;5020586;28;20129;-86
2021/07/14 08:09:49;;;;;;;82.20;40.08;;;20.30;99.90;;;;;;5042941;28;20040;-86
2021/07/14 08:12:36;;;;;;;82.28;40.53;;;20.30;99.90;;;;;;5059710;28;20109;-86
2021/07/14 08:15:23;;;;;;;78.85;39.72;;;20.20;99.90;;;;;;5058800;28;20048;-86
2021/07/14 08:18:10;;;;;;;81.38;40.03;;;20.30;99.90;;;;;;5060637;28;20041;-83
2021/07/14 08:20:59;;;;;;;89.70;41.75;;;20.20;99.90;;;;;;5061016;28;20048;-86
2021/07/14 08:23:46;;;;;;;90.30;41.30;;;20.20;99.90;;;;;;5060131;28;20420;-86
2021/07/14 08:26:34;;;;;;;78.60;39.03;;;20.40;99.90;;;;;;5058705;28;20497;-86
2021/07/14 08:29:21;;;;;;;77.60;39.38;;;20.30;99.90;;;;;;5074209;28;20041;-85
2021/07/14 08:32:08;;;;;;;80.07;38.45;;;20.30;99.90;;;;;;5059078;28;20127;-85
2021/07/14 08:34:57;;;;;;;79.25;39.90;;;20.40;99.90;;;;;;5060583;28;20045;-84
2021/07/14 08:37:45;;;;;;;74.05;38.20;;;20.40;99.90;;;;;;5059991;28;20074;-85
2021/07/14 08:40:33;;;;;;;79.97;39.75;;;20.40;99.90;;;;;;5060047;28;20050;-86
2021/07/14 08:43:21;;;;;;;73.70;38.85;;;20.40;99.90;;;;;;5059852;28;20049;-83
2021/07/14 08:46:09;;;;;;;68.30;36.47;;;20.50;99.90;;;;;;5058860;28;20048;-83
2021/07/14 08:48:59;;;;;;;66.68;36.50;;;20.60;99.90;;;;;;5058897;28;20098;-86
2021/07/14 08:51:47;;;;;;;74.22;37.85;;;20.60;99.90;;;;;;5059023;28;20102;-83
2021/07/14 08:54:38;;;;;;;76.73;38.87;;;20.60;99.90;;;;;;5060075;28;20041;-86
2021/07/14 08:57:25;;;;;;;74.07;36.70;;;20.50;99.90;;;;;;5059505;28;20053;-85
2021/07/14 09:00:15;;;;;;;72.03;36.33;;;20.60;99.90;;;;;;5059779;28;20045;-86
2021/07/14 09:03:03;;;;;;;;;;;20.70;99.90;;;;;;5058436;28;20044;-86
2021/07/14 09:05:50;;;;;;;70.18;35.50;;;20.50;99.90;;;;;;5059797;28;20015;-86
2021/07/14 09:08:38;;;;;;;67.82;35.92;;;20.60;99.90;;;;;;5056223;28;20044;-83
2021/07/14 09:11:26;;;;;;;64.00;36.05;;;20.70;99.90;;;;;;5039257;28;20055;-85
2021/07/14 09:14:25;;;;;;;65.13;35.77;;;20.90;99.90;;;;;;5039184;28;20434;-83
2021/07/14 09:17:23;;;;;;;60.35;32.90;;;21.10;99.90;;;;;;5038666;28;20051;-84
2021/07/14 09:20:13;;;;;;;58.13;32.77;;;21.30;99.90;;;;;;5038476;28;20502;-84
2021/07/14 09:23:01;;;;;;;55.33;30.85;;;21.60;99.90;;;;;;5039020;28;20199;-87
2021/07/14 09:25:53;;;;;;;53.03;31.88;;;21.80;99.90;;;;;;5039007;28;20051;-86
2021/07/14 09:28:41;;;;;;;51.70;30.52;;;21.70;99.90;;;;;;5038696;28;20410;-86
2021/07/14 09:31:29;;;;;;;51.88;30.10;;;21.60;99.90;;;;;;5038982;28;20487;-84
2021/07/14 09:34:28;;;;;;;52.78;30.83;;;21.70;99.90;;;;;;5052220;28;20055;-85
2021/07/14 09:37:17;;;;;;;50.17;29.75;;;21.60;99.90;;;;;;5038185;28;20129;-84
2021/07/14 09:40:14;;;;;;;52.03;30.58;;;21.70;99.90;;;;;;5039357;28;20114;-85
2021/07/14 09:43:04;;;;;;;50.17;29.55;;;21.80;99.90;;;;;;5039082;28;20124;-86
2021/07/14 09:45:54;;;;;;;52.13;29.10;;;21.90;99.90;;;;;;5038250;28;20517;-86
2021/07/14 09:48:43;;;;;;;52.72;29.85;;;22.00;99.90;;;;;;5038677;28;20048;-86
2021/07/14 09:51:30;;;;;;;52.08;30.42;;;22.00;99.90;;;;;;5038719;28;20049;-82
2021/07/14 09:54:26;;;;;;;54.45;31.13;;;22.10;99.90;;;;;;5052936;28;20045;-85
2021/07/14 09:57:14;;;;;;;49.25;30.38;;;22.10;99.90;;;;;;5038794;28;20588;-86
2021/07/14 10:00:18;;;;;;;50.90;30.30;;;21.90;99.90;;;;;;5039148;28;20037;-83
2021/07/14 10:03:07;;;;;;;55.95;32.92;;;21.60;99.90;;;;;;5038779;28;20422;-86
2021/07/14 10:06:05;;;;;;;54.35;31.33;;;21.30;99.90;;;;;;5038543;28;20075;-86
2021/07/14 10:08:53;;;;;;;54.83;32.17;;;21.30;99.90;;;;;;5042052;28;20037;-86
2021/07/14 10:11:41;;;;;;;59.63;32.03;;;20.90;99.90;;;;;;5057929;28;20174;-85
2021/07/14 10:14:29;;;;;;;57.60;32.97;;;20.90;99.90;;;;;;5057483;28;20067;-85
2021/07/14 10:17:35;;;;;;;56.57;31.90;;;20.80;99.90;;;;;;5056969;28;20040;-85
2021/07/14 10:20:32;;;;;;;57.78;32.72;;;20.70;99.90;;;;;;5056904;28;20048;-85
2021/07/14 10:23:21;;;;;;;52.10;30.23;;;20.90;99.90;;;;;;5057619;28;20036;-86
2021/07/14 10:26:08;;;;;;;53.90;32.65;;;21.00;99.90;;;;;;5055512;28;20509;-85
2021/07/14 10:28:56;;;;;;;53.63;32.45;;;20.90;99.90;;;;;;5057776;28;20045;-86
2021/07/14 10:31:47;;;;;;;52.92;31.35;;;20.80;99.90;;;;;;5056601;28;20131;-87
2021/07/14 10:34:36;;;;;;;54.38;31.42;;;20.80;99.90;;;;;;5057012;28;20036;-86
2021/07/14 10:37:25;;;;;;;51.53;29.80;;;20.90;99.90;;;;;;5057814;28;20601;-85
2021/07/14 10:40:16;;;;;;;52.08;31.02;;;20.90;99.90;;;;;;5057987;28;20062;-84
2021/07/14 10:43:03;;;;;;;53.70;31.15;;;21.00;99.90;;;;;;5058132;28;20129;-83
2021/07/14 10:45:52;;;;;;;44.78;28.20;;;21.10;99.90;;;;;;5055922;28;20048;-86
2021/07/14 10:48:41;;;;;;;41.80;25.97;;;21.30;99.90;;;;;;5057261;28;20048;-84
2021/07/14 10:51:29;;;;;;;;;;;21.60;99.90;;;;;;5071042;28;20048;-86
2021/07/14 10:54:23;;;;;;;37.00;24.15;;;21.70;99.90;;;;;;5057107;28;19920;-85
2021/07/14 10:57:10;;;;;;;31.77;21.35;;;21.40;99.90;;;;;;5057634;28;20113;-85
2021/07/14 10:59:58;;;;;;;26.40;18.55;;;21.20;99.90;;;;;;5057003;28;20141;-86
2021/07/14 11:02:47;;;;;;;24.70;17.55;;;21.00;99.90;;;;;;5065965;28;20047;-87
2021/07/14 11:05:42;;;;;;;;;;;21.00;99.90;;;;;;5060413;28;20056;-86
2021/07/14 11:08:44;;;;;;;27.27;17.88;;;20.70;99.90;;;;;;5018030;28;19929;-86
2021/07/14 11:11:56;;;;;;;23.67;16.67;;;20.60;99.90;;;;;;5038741;28;20052;-86
2021/07/14 11:14:51;;;;;;;21.63;14.70;;;20.50;99.90;;;;;;5057573;28;20048;-85
2021/07/14 11:17:41;;;;;;;23.20;14.90;;;20.50;99.90;;;;;;5057392;28;20036;-86
2021/07/14 11:20:37;;;;;;;19.38;14.40;;;20.50;99.90;;;;;;5044374;28;20063;-85
2021/07/14 11:23:27;;;;;;;23.98;14.88;;;21.80;99.90;;;;;;5037501;28;20530;-86
2021/07/14 11:26:24;;;;;;;21.08;14.02;;;20.80;99.90;;;;;;5037583;28;20106;-85
2021/07/14 11:29:15;;;;;;;22.05;15.63;;;20.90;99.90;;;;;;5036679;28;20498;-87
2021/07/14 11:32:02;;;;;;;23.10;14.13;;;20.90;99.90;;;;;;5037795;28;20534;-85
2021/07/14 11:34:57;;;;;;;20.05;15.10;;;21.00;99.90;;;;;;5041364;28;20099;-86
2021/07/14 11:37:56;;;;;;;22.77;16.85;;;21.00;99.90;;;;;;5055923;28;20053;-84
2021/07/14 11:40:46;;;;;;;20.70;13.60;;;21.00;99.90;;;;;;5059440;28;20497;-86
2021/07/14 11:43:40;;;;;;;;;;;21.10;99.90;;;;;;5060828;28;20040;-85
2021/07/14 11:46:31;;;;;;;19.05;14.20;;;21.20;99.90;;;;;;5060258;28;20015;-86
2021/07/14 11:49:18;;;;;;;21.30;15.27;;;21.40;99.90;;;;;;5101229;22;20051;-86
2021/07/14 11:52:06;;;;;;;26.98;17.45;;;21.20;99.90;;;;;;5061120;28;20506;-86
2021/07/14 11:55:31;;;;;;;21.45;15.48;;;21.10;99.90;;;;;;5060083;28;20112;-88
2021/07/14 11:58:48;;;;;;;17.50;12.07;;;21.00;99.90;;;;;;5067679;28;20496;-85
2021/07/14 12:02:05;;;;;;;14.75;11.43;;;20.90;99.90;;;;;;5081854;28;20070;-87
2021/07/14 12:05:09;;;;;;;12.90;9.27;;;20.80;99.90;;;;;;5081116;28;20037;-88
2021/07/14 12:08:09;;;;;;;13.95;10.23;;;20.80;99.90;;;;;;5079623;28;20051;-88
2021/07/14 12:10:57;;;;;;;10.95;8.07;;;20.90;99.90;;;;;;5080327;28;20193;-87
2021/07/14 12:14:04;;;;;;;10.18;7.82;;;21.20;99.90;;;;;;5084564;28;20521;-88
2021/07/14 12:16:53;;;;;;;9.88;7.03;;;21.50;99.90;;;;;;5078793;28;20071;-88
2021/07/14 12:19:43;;;;;;;10.27;6.93;;;21.90;99.90;;;;;;5093912;28;20246;-88
2021/07/14 12:22:32;;;;;;;11.23;7.15;;;22.10;99.90;;;;;;5080295;28;20051;-86
2021/07/14 12:25:19;;;;;;;11.10;8.32;;;22.50;99.90;;;;;;5080321;28;20052;-88
2021/07/14 12:28:09;;;;;;;11.02;8.55;;;22.60;99.90;;;;;;5079810;28;20044;-86
2021/07/14 12:30:57;;;;;;;13.48;8.80;;;22.70;99.90;;;;;;5079993;28;20070;-86
2021/07/14 12:33:44;;;;;;;14.32;10.80;;;22.80;99.90;;;;;;5078819;28;20509;-88
2021/07/14 12:36:32;;;;;;;16.00;11.00;;;23.10;99.90;;;;;;5079651;28;20047;-88
2021/07/14 12:39:21;;;;;;;17.83;10.98;;;22.80;99.90;;;;;;5095332;28;20036;-86
2021/07/14 12:42:12;;;;;;;15.90;11.07;;;22.80;99.90;;;;;;5080838;28;20181;-89
2021/07/14 12:45:03;;;;;;;16.30;9.98;;;23.20;99.90;;;;;;5092440;28;20119;-85
2021/07/14 12:47:54;;;;;;;14.30;10.18;;;23.20;99.90;;;;;;5079181;28;20051;-86
2021/07/14 12:50:46;;;;;;;14.80;9.95;;;23.30;99.90;;;;;;5080221;28;20094;-87
2021/07/14 12:53:35;;;;;;;14.68;9.90;;;23.00;99.90;;;;;;5080281;28;20040;-90
2021/07/14 12:56:24;;;;;;;12.63;10.15;;;22.90;99.90;;;;;;5080326;28;20421;-87
2021/07/14 12:59:11;;;;;;;15.70;10.73;;;22.70;99.90;;;;;;5080269;28;20044;-86
2021/07/14 13:01:59;;;;;;;11.38;8.52;;;22.60;99.90;;;;;;5079822;28;20146;-88
2021/07/14 13:04:48;;;;;;;12.45;9.60;;;22.50;99.90;;;;;;5079014;28;20059;-87
2021/07/14 13:07:36;;;;;;;10.82;7.07;;;22.50;99.90;;;;;;5079912;28;20522;-87
2021/07/14 13:10:26;;;;;;;9.43;6.95;;;22.40;99.90;;;;;;5080445;28;20119;-88
2021/07/14 13:13:14;;;;;;;14.30;7.80;;;22.50;99.90;;;;;;5066467;28;20129;-88
2021/07/14 13:16:04;;;;;;;9.83;7.47;;;22.40;99.90;;;;;;5078208;28;20126;-89
2021/07/14 13:18:54;;;;;;;9.27;7.40;;;22.40;99.90;;;;;;5078982;28;20369;-88
2021/07/14 13:21:42;;;;;;;9.13;6.68;;;22.30;99.90;;;;;;5078421;28;20050;-87
2021/07/14 13:24:29;;;;;;;8.80;6.80;;;22.30;99.90;;;;;;5093751;28;20081;-89
2021/07/14 13:27:26;;;;;;;6.60;3.95;;;22.30;99.90;;;;;;5078307;28;20058;-87
2021/07/14 13:30:34;;;;;;;4.13;2.67;;;22.20;99.90;;;;;;5078907;28;20040;-89
2021/07/14 13:33:31;;;;;;;3.20;2.07;;;22.10;99.90;;;;;;5080145;28;20040;-89
2021/07/14 13:36:18;;;;;;;3.35;1.67;;;22.10;99.90;;;;;;5078708;28;20671;-89
2021/07/14 13:39:15;;;;;;;2.88;1.80;;;22.00;99.90;;;;;;5079249;28;20185;-88
2021/07/14 13:42:16;;;;;;;3.55;1.40;;;22.20;99.90;;;;;;5078751;28;20040;-89
2021/07/14 13:45:05;;;;;;;2.67;1.50;;;22.30;99.90;;;;;;5092910;28;20410;-88
2021/07/14 13:47:57;;;;;;;1.75;1.00;;;22.10;99.90;;;;;;5079660;28;20047;-86
2021/07/14 13:50:52;;;;;;;3.50;1.10;;;21.90;99.90;;;;;;5078545;28;20036;-87
2021/07/14 13:53:39;;;;;;;1.75;0.90;;;21.70;99.90;;;;;;5078737;28;20040;-88
2021/07/14 13:56:27;;;;;;;4.47;1.08;;;21.50;99.90;;;;;;5078175;28;20050;-87
2021/07/14 13:59:26;;;;;;;2.10;1.10;;;21.50;99.90;;;;;;5077750;28;20055;-87
2021/07/14 14:02:26;;;;;;;2.30;0.90;;;21.40;99.90;;;;;;5078629;28;20058;-88
2021/07/14 14:05:20;;;;;;;;;;;21.10;99.90;;;;;;5078731;28;20048;-87
2021/07/14 14:08:08;;;;;;;2.42;1.05;;;20.90;99.90;;;;;;5078850;28;20050;-87
2021/07/14 14:10:56;;;;;;;1.45;0.80;;;20.90;99.90;;;;;;5077767;28;20503;-86
2021/07/14 14:13:43;;;;;;;2.08;1.05;;;20.80;99.90;;;;;;5077686;28;20585;-88
2021/07/14 14:16:30;;;;;;;1.10;0.70;;;20.70;99.90;;;;;;5078229;28;20425;-87
2021/07/14 14:19:18;;;;;;;2.55;0.70;;;20.80;99.90;;;;;;5078787;28;20510;-88
2021/07/14 14:22:06;;;;;;;1.70;0.80;;;20.80;99.90;;;;;;5077964;28;20040;-87
2021/07/14 14:24:54;;;;;;;2.10;0.80;;;20.70;99.90;;;;;;5078023;28;20040;-87
2021/07/14 14:27:47;;;;;;;1.85;0.77;;;20.70;99.90;;;;;;5078465;28;20050;-85
2021/07/14 14:30:35;;;;;;;2.33;0.70;;;20.80;99.90;;;;;;5077523;28;20072;-84
2021/07/14 14:33:23;;;;;;;1.38;0.70;;;20.80;99.90;;;;;;5077719;28;20044;-84
2021/07/14 14:36:12;;;;;;;2.40;0.77;;;20.70;99.90;;;;;;5077039;28;20058;-85
2021/07/14 14:38:59;;;;;;;1.25;0.60;;;20.70;99.90;;;;;;5077977;28;20100;-87
2021/07/14 14:41:47;;;;;;;2.00;0.75;;;20.70;99.90;;;;;;5076867;28;20035;-86
2021/07/14 14:44:34;;;;;;;1.92;0.52;;;20.60;99.90;;;;;;5078597;28;20044;-88
2021/07/14 14:47:21;;;;;;;1.85;0.60;;;20.50;99.90;;;;;;5077617;28;20098;-88
2021/07/14 14:50:10;;;;;;;1.42;0.40;;;20.50;99.90;;;;;;5078209;28;20042;-87
2021/07/14 14:52:58;;;;;;;1.63;0.70;;;20.30;99.90;;;;;;5077952;28;20052;-88
2021/07/14 14:55:46;;;;;;;5.63;0.50;;;20.30;99.90;;;;;;5078113;28;20538;-87
2021/07/14 14:58:33;;;;;;;0.47;0.35;;;20.40;99.90;;;;;;5077725;28;20133;-89
2021/07/14 15:01:21;;;;;;;1.35;0.30;;;20.70;99.90;;;;;;5077359;28;20127;-90
2021/07/14 15:04:08;;;;;;;1.83;0.20;;;20.80;99.90;;;;;;5077331;28;20048;-87
2021/07/14 15:06:55;;;;;;;1.05;0.30;;;21.00;99.90;;;;;;5079118;28;20087;-89
2021/07/14 15:09:44;;;;;;;0.82;0.20;;;21.20;99.90;;;;;;5082188;28;20150;-86
2021/07/14 15:12:31;;;;;;;0.55;0.20;;;21.40;99.90;;;;;;5081075;28;20040;-88
2021/07/14 15:15:18;;;;;;;0.40;0.17;;;21.50;99.90;;;;;;5081112;28;20627;-89
2021/07/14 15:18:05;;;;;;;1.67;0.28;;;21.70;99.90;;;;;;5081352;28;20099;-86
2021/07/14 15:20:53;;;;;;;0.52;0.30;;;21.80;99.90;;;;;;5081018;28;20040;-89
2021/07/14 15:23:44;;;;;;;2.70;0.45;;;22.20;99.90;;;;;;5080823;28;20067;-88
2021/07/14 15:29:38;;;;;;;0.10;0.10;;;22.60;99.90;;;;;;5095045;28;20651;-87
2021/07/14 15:32:25;;;;;;;0.88;0.10;;;22.70;99.90;;;;;;5096393;28;20537;-90
2021/07/14 15:35:12;;;;;;;0.75;0.00;;;22.70;99.90;;;;;;5081244;28;20044;-89
2021/07/14 15:37:59;;;;;;;0.40;0.10;;;22.50;99.90;;;;;;5081077;28;20498;-88
2021/07/14 15:40:46;;;;;;;0.35;0.08;;;22.30;99.90;;;;;;5080690;28;20047;-88
2021/07/14 15:43:35;;;;;;;1.92;0.10;;;22.40;99.90;;;;;;5080869;28;20131;-90
2021/07/14 15:46:37;;;;;;;2.53;0.30;;;22.40;99.90;;;;;;5083920;28;20044;-88
2021/07/14 15:49:25;;;;;;;0.60;0.10;;;22.20;99.90;;;;;;5080121;28;20048;-89
2021/07/14 15:52:12;;;;;;;0.10;0.10;;;22.00;99.90;;;;;;5080163;28;20040;-89
2021/07/14 15:55:02;;;;;;;1.48;0.20;;;21.90;99.90;;;;;;5082130;28;20044;-89
2021/07/14 15:57:49;;;;;;;0.20;0.20;;;21.80;99.90;;;;;;5080309;28;20130;-90
2021/07/14 16:00:37;;;;;;;0.38;0.20;;;21.50;99.90;;;;;;5080333;28;20044;-88
2021/07/14 16:03:25;;;;;;;1.80;0.20;;;21.40;99.90;;;;;;5095830;28;20047;-91
2021/07/14 16:06:12;;;;;;;5.15;0.20;;;21.40;99.90;;;;;;5080843;28;20047;-87
2021/07/14 16:08:59;;;;;;;0.52;0.10;;;21.30;99.90;;;;;;5080422;28;20123;-88
2021/07/14 16:11:46;;;;;;;1.02;0.20;;;21.40;99.90;;;;;;5080108;28;20422;-88
2021/07/14 16:14:33;;;;;;;0.28;0.20;;;21.50;99.90;;;;;;5079846;28;20040;-90
2021/07/14 16:17:22;;;;;;;0.30;0.10;;;21.30;99.90;;;;;;5080643;28;20051;-85
2021/07/14 16:20:11;;;;;;;0.90;0.32;;;21.60;99.90;;;;;;5079958;28;20083;-89
2021/07/14 16:22:58;;;;;;;0.75;0.13;;;21.70;99.90;;;;;;5081126;28;20561;-88
2021/07/14 16:25:46;;;;;;;0.28;0.20;;;21.60;99.90;;;;;;5081454;28;20123;-88
2021/07/14 16:28:33;;;;;;;0.93;0.10;;;21.70;99.90;;;;;;5079828;28;20048;-89
2021/07/14 16:31:20;;;;;;;0.60;0.20;;;21.90;99.90;;;;;;5080203;28;20094;-91
2021/07/14 16:34:09;;;;;;;5.25;0.30;;;21.90;99.90;;;;;;5080357;28;20462;-89